Latest Weather Observations for PWS C

IDT60801

Issued at 12:51 am EST Friday 23 April 2021 (issued every 10 minutes, with the page automatically refreshed every 10 minutes)

About weather observations | Map of weather stations | Latest weather observations for TAS | Other Formats
Station Details ID: 250094 Name: TAS PARKS WILDLIFE PORTABLE C Lat: -43.42 Lon: 146.15 Height: 25.0 m

Portable automatic weather stations (PAWS) are operated by other organisations, such as Fire and Emergency Services, and are included here by agreement. Portable stations may be deployed to a location for a short period and their location may be subject to change without notice. Wind observations from these stations are provided from heights of either three (3) or ten (10) metres above ground level (AGL).

Data from the previous 72 hours. | See also: Recent months for locations in Tasmania
Date/Time
EST
Temp
°C
App
Temp
°C
Dew
Point
°C
Rel
Hum
%
Delta-T
°C
Wind Press
QNH
hPa
Press
MSL
hPa
Rain since
9am
mm
Dir  Spd
km/h
Gust
km/h
Spd
kts
Gust
kts
23/12:40am 10.6 1.3 6.1 74 2.1 W 44 50 24 27 - - 12.2
23/12:30am 10.3 2.3 5.7 73 2.1 W 37 50 20 27 - - 12.2
23/12:20am 9.7 2.2 6.2 79 1.6 W 35 46 19 25 - - 12.2
23/12:10am 8.9 1.7 6.1 82 1.3 W 33 39 18 21 - - 12.2
23/12:00am 8.6 -0.5 6.1 84 1.1 W 43 59 23 32 - - 12.2
 
Date/Time
EST
Temp
°C
App
Temp
°C
Dew
Point
°C
Rel
Hum
%
Delta-T
°C
Wind Press
QNH
hPa
Press
MSL
hPa
Rain since
9am
mm
Dir  Spd
km/h
Gust
km/h
Spd
kts
Gust
kts
22/11:50pm 9.3 2.9 7.1 86 1.0 WSW 30 37 16 20 - - 10.2
22/11:40pm 9.8 2.8 6.9 82 1.4 W 33 39 18 21 - - 10.0
22/11:30pm 10.2 3.3 7.3 82 1.4 W 33 43 18 23 - - 9.4
22/11:20pm 10.4 1.2 6.5 77 1.8 W 44 54 24 29 - - 8.8
22/11:10pm 10.6 2.6 5.6 71 2.3 W 37 46 20 25 - - 8.8
22/11:00pm 10.7 1.0 5.8 72 2.3 W 46 59 25 32 - - 8.8
22/10:50pm 10.1 1.1 6.3 77 1.8 W 43 48 23 26 - - 8.8
22/10:40pm 9.8 1.2 6.5 80 1.5 W 41 50 22 27 - - 8.6
22/10:30pm 10.6 3.6 6.8 77 1.8 W 33 44 18 24 - - 8.6
22/10:20pm 10.4 2.2 6.5 77 1.8 W 39 48 21 26 - - 8.6
22/10:10pm 10.3 1.1 5.6 72 2.2 W 43 56 23 30 - - 8.6
22/10:00pm 9.8 1.5 6.2 78 1.7 W 39 48 21 26 - - 8.6
22/09:50pm 9.6 0.1 6.9 83 1.3 W 46 56 25 30 - - 8.6
22/09:40pm 10.2 2.5 7.1 81 1.5 W 37 52 20 28 - - 8.0
22/09:30pm 10.5 3.5 5.8 72 2.2 W 32 48 17 26 - - 6.8
22/09:20pm 10.0 4.2 6.3 78 1.7 W 26 32 14 17 - - 6.8
22/09:10pm 10.0 0.9 5.9 75 1.9 W 43 54 23 29 - - 6.8
22/09:00pm 10.4 3.1 7.3 81 1.5 WNW 35 44 19 24 - - 6.6
22/08:50pm 10.3 3.0 7.4 82 1.4 WNW 35 44 19 24 - - 6.4
22/08:40pm 10.0 2.3 7.1 82 1.4 W 37 46 20 25 - - 6.4
22/08:30pm 9.8 0.9 7.0 83 1.3 W 43 50 23 27 - - 6.4
22/08:20pm 9.9 1.1 7.1 83 1.3 W 43 57 23 31 - - 6.2
22/08:10pm 10.8 5.0 6.4 74 2.1 WNW 26 32 14 17 - - 5.4
22/08:00pm 10.4 4.7 5.0 69 2.4 W 24 33 13 18 - - 5.4
22/07:50pm 10.4 4.6 6.4 76 1.9 W 26 37 14 20 - - 5.4
22/07:40pm 10.8 3.2 5.8 71 2.3 W 35 41 19 22 - - 5.4
22/07:30pm 10.6 3.8 6.9 78 1.8 W 32 41 17 22 - - 5.4
22/07:20pm 10.2 4.6 7.3 82 1.4 WNW 26 33 14 18 - - 5.2
22/07:10pm 10.0 3.3 7.2 83 1.3 W 32 37 17 20 - - 5.2
22/07:00pm 9.7 2.0 6.9 83 1.3 W 37 46 20 25 - - 5.2
22/06:50pm 10.0 2.3 7.0 81 1.4 W 37 46 20 25 - - 4.8
22/06:40pm 10.6 4.8 6.2 74 2.1 W 26 32 14 17 - - 4.4
22/06:30pm 11.3 3.9 4.8 64 3.0 W 33 39 18 21 - - 4.4
22/06:20pm 11.1 2.5 4.9 65 2.8 W 39 50 21 27 - - 4.4
22/06:10pm 10.8 1.8 4.4 64 2.9 W 41 50 22 27 - - 4.4
22/06:00pm 10.7 0.8 4.8 67 2.7 W 46 56 25 30 - - 4.4
22/05:50pm 10.5 0.7 5.4 70 2.3 W 46 54 25 29 - - 4.4
22/05:40pm 9.8 0.9 5.3 73 2.0 W 41 46 22 25 - - 4.4
22/05:30pm 10.2 -0.1 6.7 79 1.6 W 50 59 27 32 - - 4.4
22/05:20pm 11.8 3.4 5.6 66 2.9 W 39 46 21 25 - - 3.8
22/05:10pm 11.9 2.5 5.4 64 3.0 W 44 54 24 29 - - 3.8
22/05:00pm 11.8 1.8 4.4 60 3.3 W 46 52 25 28 - - 3.8
22/04:50pm 11.7 2.3 4.5 61 3.3 W 43 50 23 27 - - 3.8
22/04:40pm 11.7 2.1 4.3 60 3.3 W 44 54 24 29 - - 3.8
22/04:30pm 11.7 3.4 4.2 60 3.4 W 37 50 20 27 - - 3.8
22/04:20pm 11.7 3.5 5.0 63 3.1 W 37 44 20 24 - - 3.8
22/04:10pm 11.7 3.2 5.0 63 3.1 W 39 52 21 28 - - 3.8
22/04:00pm 11.6 1.4 5.2 65 2.9 W 48 59 26 32 - - 3.8
22/03:50pm 11.5 3.2 6.3 70 2.4 WSW 39 54 21 29 - - 3.8
22/03:40pm 11.8 4.0 6.5 70 2.5 W 37 46 20 25 - - 3.8
22/03:30pm 12.0 3.5 7.0 71 2.4 W 41 48 22 26 - - 3.8
22/03:20pm 11.8 4.4 6.8 71 2.4 W 35 44 19 24 - - 3.8
22/03:10pm 12.1 4.4 7.0 71 2.4 W 37 46 20 25 - - 3.6
22/03:00pm 11.9 4.6 7.2 73 2.3 W 35 46 19 25 - - 3.6
22/02:50pm 11.8 2.4 7.2 73 2.2 W 46 50 25 27 - - 3.6
22/02:40pm 12.0 4.0 7.3 73 2.3 W 39 50 21 27 - - 3.6
22/02:30pm 11.9 3.5 7.5 74 2.1 W 41 48 22 26 - - 3.6
22/02:20pm 11.9 3.6 7.6 75 2.1 W 41 43 22 23 - - 3.6
22/02:10pm 12.5 4.2 7.7 72 2.3 W 41 56 22 30 - - 3.6
22/02:00pm 12.0 4.0 7.3 73 2.3 W 39 50 21 27 - - 3.6
22/01:50pm 11.0 1.5 6.7 75 2.0 W 46 54 25 29 - - 3.6
22/01:40pm 10.8 1.9 7.8 82 1.5 W 44 54 24 29 - - 3.6
22/01:30pm 11.1 2.1 9.0 87 1.0 W 46 50 25 27 - - 3.4
22/01:20pm 11.0 2.3 8.5 84 1.2 W 44 59 24 32 - - 3.0
22/01:10pm 11.3 1.9 8.9 85 1.2 W 48 59 26 32 - - 2.0
22/01:00pm 12.0 2.9 8.4 78 1.8 W 46 54 25 29 - - 1.8
22/12:50pm 12.6 5.3 8.7 77 1.9 WNW 37 39 20 21 - - 1.8
22/12:40pm 12.5 5.6 8.8 78 1.9 WNW 35 43 19 23 - - 1.8
22/12:30pm 12.1 5.2 8.8 80 1.6 WNW 35 46 19 25 - - 1.8
22/12:20pm 11.6 5.1 8.8 83 1.4 WNW 33 41 18 22 - - 1.8
22/12:10pm 11.5 5.0 8.8 83 1.3 WNW 33 44 18 24 - - 1.6
22/12:00pm 11.7 2.5 8.1 78 1.8 W 46 63 25 34 - - 1.6
22/11:50am 11.9 2.7 8.0 77 1.9 W 46 57 25 31 - - 1.6
22/11:40am 11.8 4.0 9.6 86 1.1 W 41 48 22 26 - - 1.4
22/11:30am 11.6 3.4 9.6 87 1.0 W 43 52 23 28 - - 1.0
22/11:20am 11.8 1.8 9.2 84 1.3 WNW 52 61 28 33 - - 0.6
22/11:10am 11.9 3.5 9.5 85 1.2 WNW 44 50 24 27 - - 0.4
22/11:00am 12.6 2.8 8.8 77 1.9 WNW 50 57 27 31 - - 0.0
22/10:50am 12.8 1.9 8.8 76 2.0 WNW 56 61 30 33 - - 0.0
22/10:40am 13.8 4.0 8.6 71 2.6 WNW 50 57 27 31 - - 0.0
22/10:30am 13.6 4.6 7.1 65 3.2 WNW 44 52 24 28 - - 0.0
22/10:20am 12.7 3.7 7.4 70 2.6 WNW 44 56 24 30 - - 0.0
22/10:10am 12.4 3.1 7.7 73 2.3 WNW 46 54 25 29 - - 0.0
22/10:00am 12.3 3.7 8.2 76 2.0 WNW 43 50 23 27 - - 0.0
22/09:50am 11.9 4.0 8.0 77 1.9 NW 39 46 21 25 - - 0.0
22/09:40am 11.1 2.5 8.2 82 1.4 NW 43 52 23 28 - - 0.0
22/09:30am 11.6 3.4 8.2 79 1.7 WNW 41 52 22 28 - - 0.0
22/09:20am 11.9 3.1 7.1 72 2.3 WNW 43 54 23 29 - - 0.0
22/09:10am 11.5 2.6 7.0 74 2.1 WNW 43 50 23 27 - - 0.0
22/09:00am 11.0 2.0 7.2 77 1.8 WNW 44 63 24 34 - - 12.6
22/08:50am 10.7 1.4 7.6 81 1.5 WNW 46 54 25 29 - - 12.6
22/08:40am 10.8 2.0 8.1 83 1.3 WNW 44 54 24 29 - - 12.4
22/08:30am 10.4 2.7 7.0 79 1.6 WNW 37 46 20 25 - - 12.4
22/08:20am 10.0 1.0 7.3 83 1.3 WNW 44 57 24 31 - - 12.4
22/08:10am 10.8 1.3 6.8 76 1.9 WNW 46 52 25 28 - - 12.0
22/08:00am 10.7 1.2 6.8 77 1.8 WNW 46 54 25 29 - - 12.0
22/07:50am 10.4 1.3 6.9 79 1.7 WNW 44 56 24 30 - - 12.0
22/07:40am 9.9 2.0 7.7 86 1.1 WNW 39 44 21 24 - - 12.0
22/07:30am 10.1 0.3 7.2 82 1.4 WNW 48 54 26 29 - - 11.8
22/07:20am 10.1 3.4 7.4 83 1.3 NW 32 35 17 19 - - 11.4
22/07:10am 9.9 3.2 7.3 84 1.2 NW 32 39 17 21 - - 11.4
22/07:00am 10.2 2.1 7.0 80 1.5 NW 39 46 21 25 - - 11.4
22/06:50am 10.0 1.4 6.4 78 1.7 WNW 41 50 22 27 - - 11.4
22/06:40am 9.8 0.5 5.8 76 1.8 WNW 44 57 24 31 - - 11.4
22/06:30am 10.1 0.6 6.9 80 1.5 WNW 46 54 25 29 - - 11.2
22/06:20am 11.1 2.0 5.9 70 2.4 WNW 43 48 23 26 - - 10.6
22/06:10am 10.8 0.7 5.7 71 2.4 WNW 48 57 26 31 - - 10.6
22/06:00am 10.8 -0.1 5.7 71 2.4 WNW 52 61 28 33 - - 10.6
22/05:50am 10.8 1.8 6.2 73 2.1 NW 43 48 23 26 - - 10.6
22/05:40am 11.6 1.6 6.2 69 2.5 NW 48 56 26 30 - - 10.6
22/05:30am 11.6 2.1 5.1 64 3.0 NW 44 52 24 28 - - 10.6
22/05:20am 11.4 2.5 5.1 65 2.9 NW 41 44 22 24 - - 10.6
22/05:10am 11.5 2.9 6.4 71 2.4 WNW 41 48 22 26 - - 10.6
22/05:00am 11.6 2.8 5.6 66 2.8 WNW 41 46 22 25 - - 10.6
22/04:50am 11.6 2.4 5.4 65 2.9 WNW 43 56 23 30 - - 10.6
22/04:40am 11.3 3.6 5.5 67 2.7 WNW 35 41 19 22 - - 10.6
22/04:30am 11.4 3.3 5.4 66 2.8 WNW 37 41 20 22 - - 10.6
22/04:20am 11.5 3.3 5.0 64 3.0 WNW 37 46 20 25 - - 10.6
22/04:10am 11.4 2.8 4.5 62 3.1 WNW 39 46 21 25 - - 10.6
22/04:00am 10.8 3.7 6.3 74 2.1 WNW 33 43 18 23 - - 10.4
22/03:50am 10.7 3.4 5.5 70 2.4 WNW 33 41 18 22 - - 10.4
22/03:40am 10.4 3.1 5.4 71 2.3 WNW 33 44 18 24 - - 10.4
22/03:30am 11.1 1.6 6.8 75 2.0 WNW 46 65 25 35 - - 10.4
22/03:20am 11.3 2.9 5.5 67 2.7 WNW 39 50 21 27 - - 10.4
22/03:10am 11.1 2.8 6.0 71 2.4 NW 39 46 21 25 - - 10.4
22/03:00am 11.0 2.8 6.5 74 2.1 NW 39 43 21 23 - - 10.4
22/02:50am 10.8 3.3 6.4 74 2.1 NW 35 43 19 23 - - 10.4
22/02:40am 10.0 4.7 7.0 81 1.4 NW 24 33 13 18 - - 10.4
22/02:30am 10.1 4.7 7.8 86 1.1 NW 26 35 14 19 - - 10.4
22/02:20am 10.2 3.2 6.9 80 1.6 WNW 33 39 18 21 - - 10.4
22/02:10am 10.3 3.1 7.7 84 1.2 WNW 35 48 19 26 - - 10.2
22/02:00am 11.3 4.1 7.7 78 1.7 NW 35 44 19 24 - - 9.0
22/01:50am 11.4 3.9 6.3 71 2.4 NW 35 41 19 22 - - 9.0
22/01:40am 11.2 4.2 5.9 70 2.5 WNW 32 37 17 20 - - 9.0
22/01:30am 11.4 3.8 6.0 69 2.5 WNW 35 44 19 24 - - 9.0
22/01:20am 11.3 3.8 6.5 72 2.3 NW 35 43 19 23 - - 9.0
22/01:10am 11.0 4.7 7.4 78 1.7 NW 30 37 16 20 - - 9.0
22/01:00am 11.2 4.4 7.5 78 1.8 NW 33 39 18 21 - - 9.0
22/12:50am 11.0 4.6 7.0 76 1.9 WNW 30 33 16 18 - - 9.0
22/12:40am 11.1 4.1 7.0 76 2.0 WNW 33 41 18 22 - - 9.0
22/12:30am 11.0 4.2 6.9 76 1.9 WNW 32 37 17 20 - - 9.0
22/12:20am 10.9 4.1 7.0 77 1.9 WNW 32 37 17 20 - - 9.0
22/12:10am 11.0 3.7 7.1 77 1.9 WNW 35 39 19 21 - - 9.0
22/12:00am 10.8 3.4 8.5 86 1.1 WNW 37 44 20 24 - - 9.0
 
Date/Time
EST
Temp
°C
App
Temp
°C
Dew
Point
°C
Rel
Hum
%
Delta-T
°C
Wind Press
QNH
hPa
Press
MSL
hPa
Rain since
9am
mm
Dir  Spd
km/h
Gust
km/h
Spd
kts
Gust
kts
21/11:50pm 10.1 3.1 8.6 90 0.7 WNW 35 43 19 23 - - 9.0
21/11:40pm 10.2 3.0 9.2 93 0.5 WNW 37 43 20 23 - - 8.8
21/11:30pm 9.9 5.6 9.3 96 0.3 NW 22 28 12 15 - - 7.6
21/11:20pm 9.8 5.4 9.0 95 0.4 NW 22 26 12 14 - - 6.8
21/11:10pm 9.9 5.9 8.9 93 0.5 NW 20 26 11 14 - - 6.0
21/11:00pm 10.2 5.8 8.8 91 0.7 NW 22 30 12 16 - - 5.6
21/10:50pm 10.2 6.4 9.1 93 0.5 NW 19 20 10 11 - - 5.2
21/10:40pm 10.1 7.0 8.9 92 0.6 WNW 15 20 8 11 - - 5.0
21/10:30pm 10.0 5.2 8.8 92 0.6 W 24 33 13 18 - - 5.0
21/10:20pm 10.2 5.4 8.9 92 0.6 W 24 32 13 17 - - 4.8
21/10:10pm 10.2 6.5 9.3 94 0.4 NW 19 24 10 13 - - 4.4
21/10:00pm 10.1 5.4 9.2 94 0.4 NW 24 26 13 14 - - 4.0
21/09:50pm 10.2 5.0 8.9 92 0.6 NW 26 32 14 17 - - 2.4
21/09:40pm 10.5 4.6 8.9 90 0.8 NNW 30 32 16 17 - - 1.8
21/09:30pm 10.4 4.4 8.6 89 0.9 NNW 30 41 16 22 - - 1.0
21/09:20pm 10.6 4.2 8.6 87 1.0 NNW 32 35 17 19 - - 0.8
21/09:10pm 10.6 4.5 8.4 86 1.1 NNW 30 33 16 18 - - 0.6
21/09:00pm 10.5 4.4 8.4 87 1.0 NNW 30 35 16 19 - - 0.6
21/08:50pm 10.4 3.8 8.6 89 0.9 NNW 33 37 18 20 - - 0.6
21/08:40pm 10.7 4.3 8.6 87 1.0 NNW 32 39 17 21 - - 0.6
21/08:30pm 11.1 4.5 7.7 79 1.6 NNW 32 39 17 21 - - 0.4
21/08:20pm 10.9 4.7 7.9 82 1.5 NNW 30 37 16 20 - - 0.4
21/08:10pm 11.0 4.4 7.8 80 1.5 NNW 32 37 17 20 - - 0.4
21/08:00pm 11.1 5.3 7.8 80 1.6 NNW 28 35 15 19 - - 0.4
21/07:50pm 11.1 5.6 7.6 79 1.7 NNW 26 30 14 16 - - 0.4
21/07:40pm 11.1 4.4 7.4 78 1.8 NNW 32 37 17 20 - - 0.4
21/07:30pm 11.1 4.8 7.4 78 1.8 N 30 37 16 20 - - 0.4
21/07:20pm 11.2 5.2 7.0 75 2.0 N 28 32 15 17 - - 0.4
21/07:10pm 11.2 5.2 7.0 75 2.0 NNW 28 32 15 17 - - 0.4
21/07:00pm 11.1 4.3 7.1 76 1.9 NNW 32 37 17 20 - - 0.4
21/06:50pm 11.1 4.7 6.8 75 2.0 NNW 30 37 16 20 - - 0.4
21/06:40pm 11.0 4.6 6.9 76 1.9 NNW 30 35 16 19 - - 0.4
21/06:30pm 10.9 4.5 6.9 76 1.9 NNW 30 33 16 18 - - 0.4
21/06:20pm 10.7 3.9 6.7 76 1.9 N 32 41 17 22 - - 0.4
21/06:10pm 10.7 4.3 6.8 77 1.8 NNW 30 35 16 19 - - 0.4
21/06:00pm 11.1 4.6 6.7 74 2.1 N 30 35 16 19 - - 0.4
21/05:50pm 11.0 4.8 6.2 72 2.2 NNW 28 37 15 20 - - 0.4
21/05:40pm 11.0 5.2 6.2 72 2.2 NNW 26 33 14 18 - - 0.4
21/05:30pm 11.1 4.1 6.1 71 2.3 NNW 32 37 17 20 - - 0.4
21/05:20pm 11.0 3.8 6.1 72 2.3 NNW 33 37 18 20 - - 0.4
21/05:10pm 10.8 4.3 6.5 75 2.0 NNW 30 35 16 19 - - 0.4
21/05:00pm 11.0 3.5 6.5 74 2.1 NNW 35 37 19 20 - - 0.4
21/04:50pm 11.2 3.3 6.2 71 2.3 NNW 37 44 20 24 - - 0.4
21/04:40pm 11.2 4.3 6.4 72 2.3 NNW 32 35 17 19 - - 0.4
21/04:30pm 11.2 4.3 6.6 73 2.2 NNW 32 37 17 20 - - 0.4
21/04:20pm 11.1 4.2 6.5 73 2.2 NNW 32 39 17 21 - - 0.4
21/04:10pm 10.4 4.4 7.0 79 1.6 NNW 28 33 15 18 - - 0.4
21/04:00pm 10.7 3.7 7.0 78 1.8 NNW 33 43 18 23 - - 0.2
21/03:50pm 11.2 4.0 5.8 69 2.5 NNW 33 44 18 24 - - 0.2
21/03:40pm 11.0 3.8 5.8 70 2.4 NNW 33 39 18 21 - - 0.2
21/03:30pm 11.0 4.4 6.2 72 2.2 NNW 30 39 16 21 - - 0.2
21/03:20pm 10.9 3.8 6.4 74 2.1 NNW 33 37 18 20 - - 0.2
21/03:10pm 10.8 4.3 6.6 75 2.0 NNW 30 33 16 18 - - 0.2
21/03:00pm 10.4 4.1 7.2 80 1.5 NNW 30 33 16 18 - - 0.2
21/02:50pm 10.4 3.6 6.9 79 1.7 NNW 32 37 17 20 - - 0.2
21/02:40pm 11.0 3.9 5.5 69 2.5 NNW 32 37 17 20 - - 0.0
21/02:30pm 11.2 4.2 5.9 70 2.5 NNW 32 39 17 21 - - 0.0
21/02:20pm 11.3 4.1 5.8 69 2.6 NNW 33 37 18 20 - - 0.0
21/02:10pm 11.4 4.8 6.1 70 2.5 NW 30 32 16 17 - - 0.0
21/02:00pm 10.6 4.5 6.6 76 1.9 NNW 28 33 15 18 - - 0.0
21/01:50pm 10.4 4.0 6.8 78 1.7 NNW 30 37 16 20 - - 0.0
21/01:40pm 11.2 3.9 5.5 68 2.6 NNW 33 41 18 22 - - 0.0
21/01:30pm 11.2 5.0 6.0 70 2.4 NNW 28 32 15 17 - - 0.0
21/01:20pm 10.9 4.3 6.0 72 2.3 NNW 30 33 16 18 - - 0.0
21/01:10pm 11.2 5.7 6.1 71 2.4 NNW 24 28 13 15 - - 0.0
21/01:00pm 11.8 5.4 5.2 64 3.0 NW 28 33 15 18 - - 0.0
21/12:50pm 12.4 6.0 5.0 60 3.4 NW 28 33 15 18 - - 0.0
21/12:40pm 12.4 5.2 5.1 61 3.4 NNW 32 37 17 20 - - 0.0
21/12:30pm 11.1 3.9 5.1 66 2.7 NNW 32 37 17 20 - - 0.0
21/12:20pm 11.5 5.1 5.1 65 2.9 NNW 28 33 15 18 - - 0.0
21/12:10pm 11.6 5.1 4.6 62 3.2 NNW 28 35 15 19 - - 0.0
21/12:00pm 11.6 5.4 4.5 61 3.2 NNW 26 33 14 18 - - 0.0
21/11:50am 11.7 5.2 4.8 62 3.1 NNW 28 33 15 18 - - 0.0
21/11:40am 10.9 4.3 4.3 64 3.0 N 28 33 15 18 - - 0.0
21/11:30am 11.4 4.0 4.2 61 3.2 N 32 37 17 20 - - 0.0
21/11:20am 11.2 4.2 4.1 61 3.2 N 30 35 16 19 - - 0.0
21/11:10am 11.1 4.1 3.9 61 3.2 N 30 35 16 19 - - 0.0
21/11:00am 10.8 3.7 3.7 61 3.1 NNW 30 33 16 18 - - 0.0
21/10:50am 10.8 3.4 3.9 62 3.1 NNW 32 35 17 19 - - 0.0
21/10:40am 10.4 3.7 3.7 63 2.9 NNW 28 33 15 18 - - 0.0
21/10:30am 9.8 2.3 3.5 65 2.7 NNW 32 33 17 18 - - 0.0
21/10:20am 9.7 3.0 3.9 67 2.5 NNW 28 33 15 18 - - 0.0
21/10:10am 10.1 3.4 3.9 65 2.7 NNW 28 33 15 18 - - 0.0
21/10:00am 10.3 3.5 3.0 60 3.2 NNW 28 35 15 19 - - 0.0
21/09:50am 9.7 2.6 3.4 65 2.7 NNW 30 35 16 19 - - 0.0
21/09:40am 10.4 4.5 4.0 64 2.8 NNW 24 30 13 16 - - 0.0
21/09:30am 9.9 4.9 4.4 68 2.4 NNW 20 24 11 13 - - 0.0
21/09:20am 9.4 4.0 4.3 70 2.3 NNW 22 26 12 14 - - 0.0
21/09:10am 8.6 4.1 4.2 74 1.9 NNW 17 24 9 13 - - 0.0
21/09:00am 7.5 3.5 4.8 83 1.2 NNW 15 20 8 11 - - 4.2
21/08:50am 7.5 4.2 4.8 83 1.2 NNW 11 13 6 7 - - 4.2
21/08:40am 7.2 5.0 5.1 86 0.9 WNW 6 9 3 5 - - 4.2
21/08:30am 6.2 4.6 4.7 90 0.6 NW 2 4 1 2 - - 4.2
21/08:20am 5.8 3.4 4.4 91 0.6 NNW 6 9 3 5 - - 4.2
21/08:10am 5.5 2.9 4.4 93 0.5 NW 7 9 4 5 - - 4.2
21/08:00am 5.3 1.9 4.0 91 0.5 WNW 11 13 6 7 - - 4.2
21/07:50am 4.9 1.5 3.8 93 0.5 NW 11 13 6 7 - - 4.2
21/07:40am 4.6 1.5 3.6 93 0.4 NW 9 11 5 6 - - 4.2
21/07:30am 4.5 1.8 3.7 95 0.3 NNW 7 11 4 6 - - 4.2
21/07:20am 4.2 0.7 3.4 94 0.3 WNW 11 15 6 8 - - 4.2
21/07:10am 4.0 0.5 3.3 95 0.3 NW 11 11 6 6 - - 4.2
21/07:00am 3.9 0.4 3.4 97 0.2 NNW 11 13 6 7 - - 4.2
21/06:50am 3.9 1.1 3.4 97 0.2 NNW 7 7 4 4 - - 4.2
21/06:40am 4.0 1.3 3.5 97 0.2 NNW 7 9 4 5 - - 4.2
21/06:30am 3.8 0.3 3.4 97 0.2 NW 11 13 6 7 - - 4.2
21/06:20am 3.7 0.5 3.3 97 0.2 NW 9 13 5 7 - - 4.2
21/06:10am 3.8 0.7 3.4 97 0.2 NW 9 11 5 6 - - 4.2
21/06:00am 3.9 1.2 3.5 97 0.2 NW 7 9 4 5 - - 4.2
21/05:50am 3.8 1.0 3.4 97 0.2 N 7 7 4 4 - - 4.2
21/05:40am 3.7 1.5 3.4 98 0.1 N 4 7 2 4 - - 4.2
21/05:30am 3.7 1.1 3.3 97 0.2 N 6 6 3 3 - - 4.2
21/05:20am 3.6 1.0 3.2 97 0.2 N 6 7 3 4 - - 4.2
21/05:10am 3.5 0.7 3.2 98 0.1 N 7 7 4 4 - - 4.0
21/05:00am 3.5 0.9 3.1 97 0.2 NNW 6 7 3 4 - - 4.0
21/04:50am 3.5 0.7 3.2 98 0.1 NW 7 7 4 4 - - 4.0
21/04:40am 3.1 0.4 2.6 96 0.2 NW 6 6 3 3 - - 4.0
21/04:30am 3.3 1.0 2.9 97 0.2 N 4 6 2 3 - - 4.0
21/04:20am 3.3 1.0 2.8 97 0.2 N 4 7 2 4 - - 4.0
21/04:10am 3.5 0.7 3.1 97 0.2 NNW 7 7 4 4 - - 4.0
21/04:00am 3.2 0.3 2.8 97 0.2 NNW 7 7 4 4 - - 4.0
21/03:50am 2.9 0.0 2.4 96 0.2 NW 7 9 4 5 - - 4.0
21/03:40am 3.5 0.3 3.1 97 0.2 N 9 13 5 7 - - 4.0
21/03:30am 3.2 -0.4 2.8 97 0.2 NNW 11 11 6 6 - - 4.0
21/03:20am 3.2 -0.4 2.7 96 0.2 NNW 11 13 6 7 - - 4.0
21/03:10am 3.6 0.8 3.1 97 0.2 NNW 7 9 4 5 - - 4.0
21/03:00am 3.5 0.9 3.1 97 0.2 N 6 7 3 4 - - 4.0
21/02:50am 3.6 1.0 3.1 97 0.2 NW 6 6 3 3 - - 4.0
21/02:40am 3.8 1.6 3.3 97 0.2 N 4 6 2 3 - - 4.0
21/02:30am 3.8 1.6 3.4 97 0.2 N 4 4 2 2 - - 4.0
21/02:20am 3.9 1.4 3.5 97 0.2 N 6 6 3 3 - - 4.0
21/02:10am 3.9 1.3 3.4 97 0.2 N 6 6 3 3 - - 4.0
21/02:00am 3.7 1.1 3.1 96 0.2 N 6 7 3 4 - - 4.0
21/01:50am 3.8 1.2 3.2 96 0.2 N 6 7 3 4 - - 4.0
21/01:40am 4.0 1.3 3.5 97 0.2 N 7 9 4 5 - - 4.0
21/01:30am 4.3 1.6 3.7 96 0.2 NNW 7 7 4 4 - - 4.0
21/01:20am 4.3 1.8 3.7 96 0.2 N 6 6 3 3 - - 4.0
21/01:10am 4.3 1.8 3.7 96 0.2 NNE 6 7 3 4 - - 4.0
21/01:00am 4.7 1.7 4.1 96 0.3 N 9 11 5 6 - - 4.0
21/12:50am 4.6 1.6 4.0 96 0.3 NNW 9 11 5 6 - - 4.0
21/12:40am 4.5 1.5 3.9 96 0.3 N 9 13 5 7 - - 4.0
21/12:30am 4.5 1.8 3.9 96 0.3 N 7 7 4 4 - - 4.0
21/12:20am 4.7 2.1 4.2 97 0.2 N 7 7 4 4 - - 4.0
21/12:10am 4.9 2.3 4.3 96 0.3 NNW 7 11 4 6 - - 4.0
21/12:00am 5.0 2.6 4.4 96 0.3 N 6 7 3 4 - - 4.0
 
Date/Time
EST
Temp
°C
App
Temp
°C
Dew
Point
°C
Rel
Hum
%
Delta-T
°C
Wind Press
QNH
hPa
Press
MSL
hPa
Rain since
9am
mm
Dir  Spd
km/h
Gust
km/h
Spd
kts
Gust
kts
20/11:50pm 5.2 2.3 4.5 95 0.3 N 9 13 5 7 - - 4.0
20/11:40pm 5.3 2.4 4.7 96 0.3 N 9 13 5 7 - - 4.0
20/11:30pm 5.4 2.5 4.8 96 0.3 N 9 15 5 8 - - 3.8
20/11:20pm 5.4 1.4 4.8 96 0.3 NNW 15 17 8 9 - - 3.4
20/11:10pm 4.8 1.8 4.2 96 0.3 NNW 9 15 5 8 - - 3.4
20/11:00pm 4.3 1.6 3.5 94 0.3 WSW 7 9 4 5 - - 3.0
20/10:50pm 4.3 1.7 3.3 93 0.4 WSW 6 9 3 5 - - 3.0
20/10:40pm 5.0 2.3 3.6 91 0.6 N 7 9 4 5 - - 3.0
20/10:30pm 5.0 2.0 4.0 93 0.4 NNE 9 9 5 5 - - 3.0
20/10:20pm 5.2 2.8 4.1 93 0.5 N 6 7 3 4 - - 3.0
20/10:10pm 5.2 2.7 4.0 92 0.5 N 6 9 3 5 - - 3.0
20/10:00pm 5.3 2.7 4.1 92 0.5 NNE 7 7 4 4 - - 2.8
20/09:50pm 5.3 2.9 4.2 93 0.5 N 6 7 3 4 - - 2.8
20/09:40pm 5.3 2.7 4.0 91 0.5 NNW 7 7 4 4 - - 2.8
20/09:30pm 5.2 2.6 4.1 93 0.5 NNE 7 7 4 4 - - 2.8
20/09:20pm 5.1 2.1 3.9 92 0.5 NNE 9 11 5 6 - - 2.8
20/09:10pm 5.4 1.6 3.9 90 0.6 NNW 13 15 7 8 - - 2.8
20/09:00pm 5.4 2.1 4.5 94 0.4 NNW 11 15 6 8 - - 2.8
20/08:50pm 5.2 0.7 4.2 93 0.4 NW 17 20 9 11 - - 2.8
20/08:40pm 5.0 2.0 4.0 93 0.4 NW 9 15 5 8 - - 2.8
20/08:30pm 5.1 3.1 4.2 94 0.4 NW 4 6 2 3 - - 2.8
20/08:20pm 5.2 2.2 4.2 93 0.4 ENE 9 11 5 6 - - 2.8
20/08:10pm 5.5 2.5 4.3 92 0.5 NE 9 11 5 6 - - 2.8
20/08:00pm 5.6 3.1 4.8 95 0.3 ENE 7 11 4 6 - - 2.8
20/07:50pm 5.4 2.9 4.6 95 0.3 SW 7 9 4 5 - - 1.4
20/07:40pm 5.1 2.5 4.2 94 0.4 SSW 7 13 4 7 - - 1.0
20/07:30pm 5.3 3.2 4.1 92 0.5 N 4 6 2 3 - - 1.0
20/07:20pm 5.4 3.0 4.3 93 0.5 NE 6 6 3 3 - - 1.0
20/07:10pm 5.4 2.9 4.0 91 0.6 E 6 7 3 4 - - 1.0
20/07:00pm 5.7 3.3 4.2 90 0.6 E 6 7 3 4 - - 1.0
20/06:50pm 6.4 3.9 4.0 85 1.0 W 6 7 3 4 - - 1.0
20/06:40pm 6.4 3.4 3.9 84 1.1 W 9 11 5 6 - - 1.0
20/06:30pm 6.3 3.7 4.2 86 0.9 WSW 7 11 4 6 - - 1.0
20/06:20pm 6.0 2.7 4.4 89 0.7 SW 11 19 6 10 - - 0.8
20/06:10pm 6.4 3.8 4.0 85 1.0 SW 7 9 4 5 - - 0.8
20/06:00pm 6.8 4.4 4.3 84 1.1 SSW 6 7 3 4 - - 0.8
20/05:50pm 6.8 3.8 3.9 82 1.2 S 9 11 5 6 - - 0.8
20/05:40pm 7.0 3.7 4.5 84 1.1 S 11 13 6 7 - - 0.8
20/05:30pm 7.2 3.1 4.6 83 1.1 S 15 17 8 9 - - 0.8
20/05:20pm 7.1 3.5 4.8 85 1.0 S 13 15 7 8 - - 0.8
20/05:10pm 7.1 3.0 4.6 84 1.1 S 15 17 8 9 - - 0.8
20/05:00pm 7.5 4.1 4.0 78 1.5 S 11 15 6 8 - - 0.8
20/04:50pm 7.8 4.7 3.7 75 1.8 SSW 9 11 5 6 - - 0.8
20/04:40pm 8.1 5.5 4.2 76 1.7 S 7 7 4 4 - - 0.8
20/04:30pm 8.4 5.6 5.0 79 1.5 SW 9 11 5 6 - - 0.8
20/04:20pm 8.6 5.0 5.0 78 1.6 SSW 13 19 7 10 - - 0.8
20/04:10pm 7.9 1.7 4.5 79 1.5 SSW 26 33 14 18 - - 0.8
20/04:00pm 7.8 1.3 4.9 82 1.3 SSW 28 37 15 20 - - 0.6
20/03:50pm 9.0 6.1 4.4 73 2.0 SSW 9 13 5 7 - - 0.4
20/03:40pm 9.1 4.1 3.6 68 2.4 SW 19 33 10 18 - - 0.4
20/03:30pm 10.2 4.5 2.6 59 3.3 SSW 22 28 12 15 - - 0.2
20/03:20pm 10.9 5.0 1.9 54 3.8 S 22 26 12 14 - - 0.2
20/03:10pm 11.0 5.5 2.1 54 3.8 S 20 24 11 13 - - 0.2
20/03:00pm 10.7 4.9 2.4 56 3.6 S 22 28 12 15 - - 0.2
20/02:50pm 10.7 4.8 1.9 54 3.7 SSW 22 24 12 13 - - 0.2
20/02:40pm 10.9 5.3 1.4 52 4.0 S 20 26 11 14 - - 0.2
20/02:30pm 12.1 6.2 1.4 48 4.5 S 22 30 12 16 - - 0.2
20/02:20pm 12.6 6.9 0.5 43 5.1 S 20 28 11 15 - - 0.2
20/02:10pm 12.3 5.4 0.3 43 5.0 S 26 30 14 16 - - 0.2
20/02:00pm 12.4 5.4 -0.4 41 5.2 S 26 30 14 16 - - 0.2
20/01:50pm 11.3 4.5 1.0 49 4.3 S 26 30 14 16 - - 0.2
20/01:40pm 11.2 5.0 2.4 54 3.8 S 24 26 13 14 - - 0.2
20/01:30pm 11.4 5.4 3.4 58 3.5 SSW 24 28 13 15 - - 0.2
20/01:20pm 12.7 6.2 2.7 50 4.4 S 26 32 14 17 - - 0.2
20/01:10pm 12.1 5.8 3.7 56 3.7 S 26 32 14 17 - - 0.2
20/01:00pm 11.4 6.2 3.7 59 3.4 S 20 22 11 12 - - 0.2
20/12:50pm 11.5 5.5 3.2 56 3.6 S 24 28 13 15 - - 0.2
20/12:40pm 9.5 3.1 5.2 74 1.9 S 28 33 15 18 - - 0.2
20/12:30pm 12.5 6.9 5.4 62 3.3 S 24 41 13 22 - - 0.2
20/12:20pm 11.7 6.6 2.8 54 3.9 SSW 19 20 10 11 - - 0.2
20/12:10pm 11.4 6.3 3.0 56 3.7 SSW 19 20 10 11 - - 0.2
20/12:00pm 11.2 7.6 4.9 65 2.9 SW 13 15 7 8 - - 0.2
20/11:50am 10.1 6.9 5.2 71 2.2 SW 11 13 6 7 - - 0.2
20/11:40am 9.6 4.5 4.2 69 2.4 SW 20 24 11 13 - - 0.2
20/11:30am 10.1 4.7 4.5 68 2.5 SSW 22 30 12 16 - - 0.2
20/11:20am 11.0 7.3 4.5 64 2.9 S 13 19 7 10 - - 0.2
20/11:10am 11.3 7.7 4.8 64 3.0 SSW 13 15 7 8 - - 0.2
20/11:00am 11.1 8.2 6.4 73 2.2 SSW 11 13 6 7 - - 0.2
20/10:50am 10.2 6.7 5.5 72 2.1 S 13 17 7 9 - - 0.2
20/10:40am 10.3 6.5 6.0 75 2.0 S 15 17 8 9 - - 0.2
20/10:30am 10.2 6.9 6.4 77 1.8 SSW 13 15 7 8 - - 0.2
20/10:20am 9.7 6.4 6.6 81 1.4 SSW 13 15 7 8 - - 0.2
20/10:10am 9.5 7.8 7.4 87 1.0 S 6 9 3 5 - - 0.2
20/10:00am 9.4 8.0 7.4 87 0.9 ENE 4 6 2 3 - - 0.2
20/09:50am 9.3 8.0 7.8 90 0.7 E 4 6 2 3 - - 0.2
20/09:40am 9.1 8.0 7.0 87 1.0 NNW 2 2 1 1 - - 0.2
20/09:30am 8.9 7.7 6.3 84 1.2 WNW 2 4 1 2 - - 0.2
20/09:20am 8.7 7.2 6.8 88 0.9 NW 4 6 2 3 - - 0.2
20/09:10am 8.6 6.5 5.9 83 1.2 SW 6 11 3 6 - - 0.2
20/09:00am 8.6 7.2 7.4 92 0.6 NNW 4 6 2 3 - - 27.6
20/08:50am 8.5 6.6 7.5 93 0.5 N 7 7 4 4 - - 27.6
20/08:40am 8.4 7.4 7.5 94 0.4 NW 2 6 1 3 - - 27.6
20/08:30am 8.3 7.0 7.6 95 0.3 E 4 4 2 2 - - 27.6
20/08:20am 8.2 7.2 7.5 95 0.3 NE 2 4 1 2 - - 27.6
20/08:10am 8.1 6.8 7.5 96 0.3 E 4 4 2 2 - - 27.4
20/08:00am 8.1 6.4 7.4 95 0.3 E 6 7 3 4 - - 27.4
20/07:50am 8.1 6.3 7.2 94 0.4 SE 6 13 3 7 - - 27.4
20/07:40am 8.2 6.3 7.6 96 0.3 SE 7 13 4 7 - - 27.4
20/07:30am 8.2 6.5 7.7 97 0.2 NNE 6 9 3 5 - - 27.2
20/07:20am 8.2 5.6 7.7 97 0.2 NNE 11 11 6 6 - - 26.8
20/07:10am 8.4 6.8 8.0 97 0.2 N 6 7 3 4 - - 26.8
20/07:00am 8.3 7.1 7.9 97 0.2 N 4 4 2 2 - - 26.6
20/06:50am 8.4 6.8 8.0 97 0.2 NE 6 6 3 3 - - 26.6
20/06:40am 8.4 7.2 8.0 97 0.2 N 4 6 2 3 - - 26.6
20/06:30am 8.5 6.7 8.1 97 0.2 WSW 7 13 4 7 - - 26.4
20/06:20am 8.4 6.8 7.9 97 0.2 ESE 6 9 3 5 - - 25.8
20/06:10am 8.5 6.9 8.0 97 0.2 E 6 11 3 6 - - 25.6
20/06:00am 8.5 5.6 8.1 97 0.2 NE 13 15 7 8 - - 25.4
20/05:50am 8.6 6.1 8.1 97 0.2 NE 11 15 6 8 - - 25.4
20/05:40am 8.6 7.0 8.1 97 0.2 NE 6 9 3 5 - - 25.4
20/05:30am 8.6 7.4 8.1 97 0.2 NNE 4 6 2 3 - - 25.2
20/05:20am 8.6 7.4 8.0 96 0.3 NNW 4 6 2 3 - - 25.2
20/05:10am 8.6 7.0 8.0 96 0.3 NNW 6 7 3 4 - - 24.8
20/05:00am 8.6 7.0 7.9 95 0.3 NNE 6 7 3 4 - - 24.8
20/04:50am 8.7 6.9 8.0 95 0.3 ENE 7 9 4 5 - - 24.4
20/04:40am 8.7 7.1 7.8 94 0.4 NE 6 7 3 4 - - 24.2
20/04:30am 8.7 6.5 7.9 95 0.4 NE 9 13 5 7 - - 23.8
20/04:20am 8.7 6.5 7.9 95 0.4 NNW 9 11 5 6 - - 23.2
20/04:10am 8.6 6.0 7.8 95 0.4 NNE 11 11 6 6 - - 22.8
20/04:00am 8.6 6.7 7.7 94 0.4 NE 7 11 4 6 - - 22.8
20/03:50am 8.7 6.8 7.6 93 0.5 ESE 7 7 4 4 - - 22.6
20/03:40am 9.0 7.0 7.2 88 0.8 SW 7 11 4 6 - - 22.2
20/03:30am 9.2 6.4 7.0 86 1.0 WNW 11 13 6 7 - - 21.6
20/03:20am 9.4 4.8 6.7 83 1.3 W 20 26 11 14 - - 21.4
20/03:10am 9.5 5.2 6.8 83 1.3 W 19 24 10 13 - - 21.2
20/03:00am 9.8 5.4 7.6 86 1.1 SW 20 30 11 16 - - 21.0
20/02:50am 9.8 5.9 7.2 84 1.2 SW 17 26 9 14 - - 20.6
20/02:40am 9.7 7.2 8.3 91 0.7 SW 11 15 6 8 - - 20.0
20/02:30am 10.0 5.8 8.1 88 0.9 SW 20 28 11 15 - - 19.6
20/02:20am 10.3 6.1 8.2 87 1.0 SW 20 28 11 15 - - 19.0
20/02:10am 10.5 6.4 8.7 89 0.9 SW 20 26 11 14 - - 18.6
20/02:00am 10.5 6.6 8.8 89 0.8 SW 19 24 10 13 - - 18.2
20/01:50am 10.5 6.5 9.1 91 0.7 WSW 20 30 11 16 - - 17.8
20/01:40am 10.5 4.5 8.8 89 0.8 WSW 30 33 16 18 - - 17.4
20/01:30am 10.7 5.2 9.3 91 0.7 W 28 33 15 18 - - 16.6
20/01:20am 10.9 5.9 9.4 90 0.8 W 26 37 14 20 - - 15.8
20/01:10am 11.1 4.9 9.4 89 0.9 W 32 39 17 21 - - 15.0
20/01:00am 11.3 4.6 9.6 89 0.9 W 35 44 19 24 - - 14.4

Other formats

Comma delimited format used in spreadsheet applications
http://www.bom.gov.au/fwo/IDT60801/IDT60801.99142.axf

JavaScript Object Notation format (JSON) in row-major order
http://www.bom.gov.au/fwo/IDT60801/IDT60801.99142.json

Data quality

Most of these data are generated automatically and are frequently updated. Quality checks on data are not normally performed. It is possible for incorrect values to appear. Refer to information at About Latest Weather Observations and please check the disclaimer before using these data.